Active alerts


No alerts


weather webcam more information weather webcam


Thunder radar more information blitzortung!


Rain radar more information rain snow radar


Visit our other weather sites:

Template documentation
and downloads

And another site


Nearby METAR Reports

   
EBBR - Brussels International Airport, Belgium
Distance from station: W 9 mi
Updated: Jan 16 2018 5:20 pm
Mostly Cloudy  
Mostly Cloudy  
   Wind: SW 16.1 mph
Wind: SW 16.1 mph
Temperature: 39.2°F
Wind Chill: 30.2°F
Dew Point: 33.8°F
Humidity: 81%
Barometer: 29.35 inHg
Clouds: Mostly Cloudy
Visibility: More than 6 mi
Cloud details: Partly Cloudy 1700 ft,
Mostly Cloudy 3400 ft
EBBR 162320Z 23014KT 9999 SCT017 BKN034 04/01 Q0994 NOSIG
EBBE - Beauvechain (Bevekom), Belgium
Distance from station: SSE 10 mi
Updated: Jan 16 2018 5:38 pm
Mostly Cloudy  
Mostly Cloudy  
   Wind: SW 13.8 mph
Wind: SW 13.8 mph
Temperature: 37.4°F
Wind Chill: 28.4°F
Dew Point: 33.8°F
Humidity: 87%
Barometer: 29.35 inHg
Clouds: Mostly Cloudy
Visibility: More than 6 mi
Cloud details: Few Clouds 900 ft,
Mostly Cloudy 2400 ft,
Mostly Cloudy 18000 ft
EBBE 162338Z AUTO 22012KT 9999 FEW009/// BKN024/// BKN180/// 03/01 Q0994 WHT
EBDT - Schaffen, Belgium
Distance from station: ENE 18 mi
Updated: Jan 16 2018 5:25 pm
Overcast  
Overcast  
   Wind: SW 10.4 mph<br />Gust to 10.4 mph
Wind: SW 10.4 mph
Gust to 10.4 mph
Temperature: 39.2°F
Wind Chill: 32°F
Dew Point: 33.8°F
Humidity: 81%
Barometer: 29.35 inHg
Clouds: Overcast
Visibility: More than 6 mi
Cloud details: Few Clouds 2300 ft,
Mostly Cloudy 6500 ft,
Overcast 8000 ft
EBDT 162325Z AUTO 23009G20KT 9999 FEW023/// BKN065/// OVC080/// 04/01 Q0994 BLU
EBAW - Antwerp/Deurne, Belgium
Distance from station: NNW 23 mi
Updated: Jan 16 2018 5:20 pm
Overcast  
Overcast  
   Wind: WSW 11.5 mph
Wind: WSW 11.5 mph
Temperature: 41°F
Wind Chill: 33.8°F
Dew Point: 33.8°F
Humidity: 76%
Barometer: 29.32 inHg
Clouds: Overcast
Visibility: More than 6 mi
Cloud details: Overcast 2200 ft
EBAW 162320Z AUTO 24010KT 9999 // OVC022/// 05/01 Q0993
EBCI - Charleroi/Gosselies, Belgium
Distance from station: SSW 32 mi
Updated: Jan 16 2018 5:20 pm
Mostly Cloudy  
Mostly Cloudy  
   Wind: WSW 17.3 mph
Wind: WSW 17.3 mph
Temperature: 37.4°F
Wind Chill: 28.4°F
Dew Point: 33.8°F
Humidity: 87%
Barometer: 29.38 inHg
Clouds: Mostly Cloudy
Visibility: More than 6 mi
Cloud details: Few Clouds 400 ft,
Mostly Cloudy 700 ft,
Mostly Cloudy 1300 ft
EBCI 162320Z 25015KT 9999 FEW004 BKN007 BKN013 03/01 Q0995 RESHSN RESHRA NOSIG
EBLG - Bierset/Liege, Belgium
Distance from station: ESE 38 mi
Updated: Jan 16 2018 5:20 pm
Mostly Cloudy  
Mostly Cloudy  
   Wind: WSW 19.6 mph
Wind: WSW 19.6 mph
Temperature: 35.6°F
Wind Chill: 24.8°F
Dew Point: 33.8°F
Humidity: 93%
Barometer: 29.35 inHg
Clouds: Mostly Cloudy
Visibility: More than 6 mi
Cloud details: Partly Cloudy 1200 ft,
Mostly Cloudy 4000 ft
EBLG 162320Z 24017KT 9999 SCT012 BKN040 02/01 Q0994 NOSIG

Script developed by  Saratoga-weather.org Adapted for the template by  Weerstation Leuven

You find our weather info also at:

Weather Underground

Midwestern Weather Network

Citizen Weather Observer Program (CWOP)

HAMweather, WeatherForYou, PWS Weather

Equipment we use:

Weather-station
Davis VP2

Weather-program
Cumulus

Davis VP2

Cumulus